createdAt,value
2018-12-16T00:00:28.337Z,1017.93
2018-12-16T00:01:28.480Z,1017.95
2018-12-16T00:02:28.374Z,1017.94
2018-12-16T00:03:28.319Z,1017.92
2018-12-16T00:04:30.231Z,1017.94
2018-12-16T00:05:28.310Z,1017.94
2018-12-16T00:06:28.295Z,1017.91
2018-12-16T00:07:28.283Z,1017.91
2018-12-16T00:08:28.275Z,1017.86
2018-12-16T00:09:28.502Z,1017.83
2018-12-16T00:10:28.208Z,1017.77
2018-12-16T00:11:28.267Z,1017.72
2018-12-16T00:12:28.222Z,1017.72
2018-12-16T00:13:28.464Z,1017.69
2018-12-16T00:14:28.869Z,1017.71
2018-12-16T00:15:28.333Z,1017.70
2018-12-16T00:16:28.817Z,1017.75
2018-12-16T00:17:28.765Z,1017.73
2018-12-16T00:18:28.219Z,1017.75
2018-12-16T00:19:28.820Z,1017.79
2018-12-16T00:20:29.138Z,1017.78
2018-12-16T00:21:28.146Z,1017.75
2018-12-16T00:22:29.972Z,1017.77
2018-12-16T00:23:28.090Z,1017.74
2018-12-16T00:24:28.094Z,1017.75
2018-12-16T00:25:28.302Z,1017.70
2018-12-16T00:26:49.821Z,1017.68
2018-12-16T00:27:28.057Z,1017.69
2018-12-16T00:28:28.086Z,1017.65
2018-12-16T00:29:28.057Z,1017.65
2018-12-16T00:30:28.077Z,1017.68
2018-12-16T00:31:28.043Z,1017.68
2018-12-16T00:32:28.393Z,1017.63
2018-12-16T00:33:28.732Z,1017.66
2018-12-16T00:34:27.955Z,1017.65
2018-12-16T00:35:28.154Z,1017.63
2018-12-16T00:36:28.021Z,1017.56
2018-12-16T00:37:28.028Z,1017.57
2018-12-16T00:38:27.947Z,1017.52
2018-12-16T00:39:27.963Z,1017.49
2018-12-16T00:40:28.809Z,1017.56
2018-12-16T00:41:28.109Z,1017.54
2018-12-16T00:42:28.779Z,1017.54
2018-12-16T00:43:28.381Z,1017.48
2018-12-16T00:44:29.232Z,1017.52
2018-12-16T00:45:28.769Z,1017.55
2018-12-16T00:46:28.742Z,1017.46
2018-12-16T00:47:27.835Z,1017.44
2018-12-16T00:48:30.248Z,1017.45
2018-12-16T00:49:27.885Z,1017.43
2018-12-16T00:50:27.820Z,1017.45
2018-12-16T00:51:27.818Z,1017.37
2018-12-16T00:52:27.869Z,1017.37
2018-12-16T00:53:27.833Z,1017.38
2018-12-16T00:54:27.807Z,1017.43
2018-12-16T00:55:27.787Z,1017.35
2018-12-16T00:56:31.854Z,1017.33
2018-12-16T00:57:28.778Z,1017.36
2018-12-16T00:58:28.339Z,1017.31
2018-12-16T00:59:27.709Z,1017.29
2018-12-16T01:00:28.840Z,1017.28
2018-12-16T01:01:27.692Z,1017.32
2018-12-16T01:02:27.681Z,1017.32
2018-12-16T01:03:27.704Z,1017.31
2018-12-16T01:04:27.664Z,1017.30
2018-12-16T01:05:27.657Z,1017.31
2018-12-16T01:06:27.705Z,1017.29
2018-12-16T01:07:28.235Z,1017.30
2018-12-16T01:08:27.682Z,1017.22
2018-12-16T01:09:27.619Z,1017.21
2018-12-16T01:10:27.603Z,1017.20
2018-12-16T01:11:27.576Z,1017.17
2018-12-16T01:12:27.591Z,1017.16
2018-12-16T01:13:27.807Z,1017.12
2018-12-16T01:14:27.567Z,1017.17
2018-12-16T01:15:27.549Z,1017.12
2018-12-16T01:16:28.240Z,1017.10
2018-12-16T01:17:27.560Z,1017.10
2018-12-16T01:18:27.538Z,1017.04
2018-12-16T01:19:27.524Z,1017.03
2018-12-16T01:20:27.504Z,1017.03
2018-12-16T01:21:27.543Z,1016.98
2018-12-16T01:22:27.517Z,1017.03
2018-12-16T01:23:27.456Z,1017.01
2018-12-16T01:24:27.476Z,1017.02
2018-12-16T01:25:27.464Z,1017.01
2018-12-16T01:26:27.474Z,1017.03
2018-12-16T01:27:27.448Z,1017.02
2018-12-16T01:28:27.486Z,1017.01
2018-12-16T01:29:27.484Z,1016.98
2018-12-16T01:30:27.458Z,1017.00
2018-12-16T01:31:27.420Z,1017.00
2018-12-16T01:32:27.428Z,1017.00
2018-12-16T01:33:27.356Z,1017.00
2018-12-16T01:34:27.354Z,1017.00
2018-12-16T01:35:27.408Z,1016.99
2018-12-16T01:36:27.314Z,1016.99
2018-12-16T01:37:27.318Z,1016.91
2018-12-16T01:38:27.346Z,1016.96
2018-12-16T01:39:27.335Z,1016.90
2018-12-16T01:40:27.285Z,1016.88
2018-12-16T01:41:27.308Z,1016.92
2018-12-16T01:42:27.838Z,1016.84
2018-12-16T01:43:27.381Z,1016.86
2018-12-16T01:44:27.777Z,1016.83
2018-12-16T01:45:27.496Z,1016.78
2018-12-16T01:46:27.556Z,1016.79
2018-12-16T01:47:27.292Z,1016.72
2018-12-16T01:48:27.291Z,1016.73
2018-12-16T01:49:27.197Z,1016.68
2018-12-16T01:50:27.216Z,1016.66
2018-12-16T01:51:27.213Z,1016.63
2018-12-16T01:52:27.182Z,1016.64
2018-12-16T01:53:27.228Z,1016.65
2018-12-16T01:54:27.141Z,1016.61
2018-12-16T01:55:27.168Z,1016.59
2018-12-16T01:56:27.155Z,1016.57
2018-12-16T01:57:27.136Z,1016.54
2018-12-16T01:58:27.114Z,1016.47
2018-12-16T01:59:27.148Z,1016.52
2018-12-16T02:00:27.094Z,1016.44
2018-12-16T02:01:27.073Z,1016.39
2018-12-16T02:02:27.079Z,1016.33
2018-12-16T02:03:27.071Z,1016.34
2018-12-16T02:04:27.032Z,1016.35
2018-12-16T02:05:27.018Z,1016.32
2018-12-16T02:06:27.032Z,1016.36
2018-12-16T02:07:27.041Z,1016.29
2018-12-16T02:08:27.746Z,1016.30
2018-12-16T02:09:26.989Z,1016.32
2018-12-16T02:10:27.249Z,1016.34
2018-12-16T02:11:27.119Z,1016.31
2018-12-16T02:12:27.158Z,1016.27
2018-12-16T02:13:27.739Z,1016.25
2018-12-16T02:14:26.964Z,1016.26
2018-12-16T02:15:26.947Z,1016.22
2018-12-16T02:16:27.021Z,1016.25
2018-12-16T02:17:26.963Z,1016.21
2018-12-16T02:18:26.895Z,1016.22
2018-12-16T02:19:26.874Z,1016.22
2018-12-16T02:20:26.907Z,1016.19
2018-12-16T02:21:26.944Z,1016.16
2018-12-16T02:22:26.933Z,1016.12
2018-12-16T02:23:26.849Z,1016.13
2018-12-16T02:24:26.820Z,1016.14
2018-12-16T02:25:26.816Z,1016.16
2018-12-16T02:26:26.798Z,1016.15
2018-12-16T02:27:26.830Z,1016.16
2018-12-16T02:28:26.799Z,1016.14
2018-12-16T02:29:26.770Z,1016.14
2018-12-16T02:30:26.804Z,1016.13
2018-12-16T02:31:26.781Z,1016.16
2018-12-16T02:32:26.770Z,1016.10
2018-12-16T02:33:26.798Z,1016.09
2018-12-16T02:34:26.781Z,1016.04
2018-12-16T02:35:26.702Z,1016.09
2018-12-16T02:36:26.730Z,1016.07
2018-12-16T02:37:26.723Z,1016.10
2018-12-16T02:38:26.674Z,1016.12
2018-12-16T02:39:26.685Z,1016.06
2018-12-16T02:40:26.718Z,1016.14
2018-12-16T02:41:26.656Z,1016.15
2018-12-16T02:42:26.648Z,1016.11
2018-12-16T02:43:26.661Z,1016.12
2018-12-16T02:44:26.643Z,1016.10
2018-12-16T02:45:26.602Z,1016.07
2018-12-16T02:46:26.636Z,1016.06
2018-12-16T02:47:27.256Z,1016.08
2018-12-16T02:48:26.608Z,1016.13
2018-12-16T02:49:26.623Z,1016.11
2018-12-16T02:50:26.577Z,1016.07
2018-12-16T02:51:26.602Z,1016.09
2018-12-16T02:52:26.636Z,1016.11
2018-12-16T02:53:26.564Z,1016.05
2018-12-16T02:54:26.536Z,1016.06
2018-12-16T02:55:26.505Z,1015.98
2018-12-16T02:56:26.561Z,1016.00
2018-12-16T02:57:26.552Z,1016.00
2018-12-16T02:58:26.528Z,1016.00
2018-12-16T02:59:26.497Z,1015.97
2018-12-16T03:00:26.460Z,1015.91
2018-12-16T03:01:26.428Z,1015.93
2018-12-16T03:02:26.528Z,1015.86
2018-12-16T03:03:26.433Z,1015.78
2018-12-16T03:04:26.488Z,1015.84
2018-12-16T03:05:26.379Z,1015.84
2018-12-16T03:06:26.380Z,1015.86
2018-12-16T03:07:26.383Z,1015.88
2018-12-16T03:08:26.409Z,1015.83
2018-12-16T03:09:27.345Z,1015.87
2018-12-16T03:10:26.369Z,1015.77
2018-12-16T03:11:26.404Z,1015.78
2018-12-16T03:12:26.487Z,1015.74
2018-12-16T03:13:26.309Z,1015.78
2018-12-16T03:14:26.380Z,1015.70
2018-12-16T03:15:26.433Z,1015.74
2018-12-16T03:16:27.251Z,1015.67
2018-12-16T03:17:26.283Z,1015.63
2018-12-16T03:18:26.270Z,1015.65
2018-12-16T03:19:26.266Z,1015.65
2018-12-16T03:20:26.240Z,1015.63
2018-12-16T03:21:26.219Z,1015.63
2018-12-16T03:22:26.262Z,1015.62
2018-12-16T03:23:26.202Z,1015.64
2018-12-16T03:24:26.219Z,1015.59
2018-12-16T03:25:26.226Z,1015.62
2018-12-16T03:26:26.162Z,1015.60
2018-12-16T03:27:26.193Z,1015.60
2018-12-16T03:28:26.250Z,1015.59
2018-12-16T03:29:26.190Z,1015.53
2018-12-16T03:30:26.142Z,1015.57
2018-12-16T03:31:26.184Z,1015.53
2018-12-16T03:32:26.157Z,1015.55
2018-12-16T03:33:26.223Z,1015.59
2018-12-16T03:34:26.125Z,1015.50
2018-12-16T03:35:26.070Z,1015.56
2018-12-16T03:36:26.125Z,1015.53
2018-12-16T03:37:26.100Z,1015.53
2018-12-16T03:38:26.059Z,1015.54
2018-12-16T03:39:26.050Z,1015.53
2018-12-16T03:40:26.108Z,1015.50
2018-12-16T03:41:26.108Z,1015.44
2018-12-16T03:42:26.045Z,1015.47
2018-12-16T03:43:26.021Z,1015.50
2018-12-16T03:44:26.039Z,1015.46
2018-12-16T03:45:26.061Z,1015.46
2018-12-16T03:46:26.026Z,1015.48
2018-12-16T03:47:26.037Z,1015.48
2018-12-16T03:48:25.966Z,1015.42
2018-12-16T03:49:25.984Z,1015.46
2018-12-16T03:50:25.978Z,1015.43
2018-12-16T03:51:26.038Z,1015.43
2018-12-16T03:52:25.921Z,1015.41
2018-12-16T03:53:26.007Z,1015.40
2018-12-16T03:54:25.901Z,1015.38
2018-12-16T03:55:25.894Z,1015.35
2018-12-16T03:56:26.015Z,1015.38
2018-12-16T03:57:25.904Z,1015.38
2018-12-16T03:58:25.839Z,1015.42
2018-12-16T03:59:25.907Z,1015.36
2018-12-16T04:00:25.863Z,1015.39
2018-12-16T04:01:25.957Z,1015.37
2018-12-16T04:02:25.856Z,1015.33
2018-12-16T04:03:25.962Z,1015.36
2018-12-16T04:04:25.829Z,1015.38
2018-12-16T04:05:25.805Z,1015.38
2018-12-16T04:06:25.839Z,1015.36
2018-12-16T04:07:25.769Z,1015.30
2018-12-16T04:08:25.754Z,1015.28
2018-12-16T04:09:25.779Z,1015.26
2018-12-16T04:10:25.723Z,1015.24
2018-12-16T04:11:25.714Z,1015.22
2018-12-16T04:12:25.715Z,1015.19
2018-12-16T04:13:25.754Z,1015.18
2018-12-16T04:14:26.375Z,1015.18
2018-12-16T04:15:25.695Z,1015.14
2018-12-16T04:16:25.721Z,1015.14
2018-12-16T04:17:25.676Z,1015.17
2018-12-16T04:18:25.720Z,1015.15
2018-12-16T04:19:25.746Z,1015.14
2018-12-16T04:20:34.397Z,1015.02
2018-12-16T04:21:25.618Z,1015.04
2018-12-16T04:22:25.621Z,1015.00
2018-12-16T04:23:27.589Z,1015.01
2018-12-16T04:24:25.571Z,1014.97
2018-12-16T04:25:25.590Z,1014.97
2018-12-16T04:26:25.567Z,1014.96
2018-12-16T04:27:25.553Z,1014.88
2018-12-16T04:28:25.532Z,1014.83
2018-12-16T04:29:25.541Z,1014.89
2018-12-16T04:30:25.525Z,1014.82
2018-12-16T04:31:25.556Z,1014.87
2018-12-16T04:32:25.530Z,1014.83
2018-12-16T04:33:25.553Z,1014.80
2018-12-16T04:34:25.514Z,1014.85
2018-12-16T04:35:25.471Z,1014.78
2018-12-16T04:36:25.466Z,1014.78
2018-12-16T04:37:25.457Z,1014.78
2018-12-16T04:38:25.427Z,1014.72
2018-12-16T04:39:25.514Z,1014.75
2018-12-16T04:40:25.447Z,1014.70
2018-12-16T04:41:25.416Z,1014.78
2018-12-16T04:42:25.414Z,1014.77
2018-12-16T04:43:25.380Z,1014.75
2018-12-16T04:44:25.424Z,1014.73
2018-12-16T04:45:25.413Z,1014.73
2018-12-16T04:46:25.356Z,1014.70
2018-12-16T04:47:25.329Z,1014.70
2018-12-16T04:48:25.347Z,1014.69
2018-12-16T04:49:25.321Z,1014.71
2018-12-16T04:50:25.334Z,1014.67
2018-12-16T04:51:25.373Z,1014.63
2018-12-16T04:52:25.345Z,1014.66
2018-12-16T04:53:25.319Z,1014.68
2018-12-16T04:54:25.268Z,1014.69
2018-12-16T04:55:25.271Z,1014.61
2018-12-16T04:56:25.445Z,1014.67
2018-12-16T04:57:25.253Z,1014.60
2018-12-16T04:58:25.246Z,1014.62
2018-12-16T04:59:25.258Z,1014.59
2018-12-16T05:00:25.253Z,1014.59
2018-12-16T05:01:25.185Z,1014.59
2018-12-16T05:02:25.211Z,1014.57
2018-12-16T05:03:25.209Z,1014.57
2018-12-16T05:04:25.169Z,1014.59
2018-12-16T05:05:25.141Z,1014.55
2018-12-16T05:06:25.209Z,1014.54
2018-12-16T05:07:25.158Z,1014.46
2018-12-16T05:08:25.163Z,1014.46
2018-12-16T05:09:25.124Z,1014.48
2018-12-16T05:10:25.099Z,1014.45
2018-12-16T05:11:25.118Z,1014.38
2018-12-16T05:12:25.102Z,1014.45
2018-12-16T05:13:25.077Z,1014.38
2018-12-16T05:14:25.137Z,1014.38
2018-12-16T05:15:25.127Z,1014.35
2018-12-16T05:16:25.142Z,1014.29
2018-12-16T05:17:25.110Z,1014.22
2018-12-16T05:18:25.273Z,1014.23
2018-12-16T05:19:25.100Z,1014.21
2018-12-16T05:20:25.015Z,1014.17
2018-12-16T05:21:25.037Z,1014.16
2018-12-16T05:22:25.008Z,1014.17
2018-12-16T05:23:24.949Z,1014.18
2018-12-16T05:24:25.019Z,1014.12
2018-12-16T05:25:25.120Z,1014.13
2018-12-16T05:26:24.939Z,1014.08
2018-12-16T05:27:24.943Z,1014.07
2018-12-16T05:28:24.928Z,1014.04
2018-12-16T05:29:24.927Z,1014.03
2018-12-16T05:30:24.943Z,1014.06
2018-12-16T05:31:24.898Z,1014.02
2018-12-16T05:32:24.892Z,1013.99
2018-12-16T05:33:24.910Z,1013.99
2018-12-16T05:34:24.943Z,1013.98
2018-12-16T05:35:24.930Z,1013.96
2018-12-16T05:36:24.827Z,1013.96
2018-12-16T05:37:24.857Z,1013.95
2018-12-16T05:38:24.819Z,1013.94
2018-12-16T05:39:24.830Z,1013.89
2018-12-16T05:40:24.842Z,1013.85
2018-12-16T05:41:24.796Z,1013.85
2018-12-16T05:42:24.794Z,1013.80
2018-12-16T05:43:24.794Z,1013.87
2018-12-16T05:44:24.762Z,1013.85
2018-12-16T05:45:24.763Z,1013.85
2018-12-16T05:46:24.795Z,1013.82
2018-12-16T05:47:24.741Z,1013.83
2018-12-16T05:48:24.754Z,1013.83
2018-12-16T05:49:25.294Z,1013.80
2018-12-16T05:50:24.704Z,1013.81
2018-12-16T05:51:24.703Z,1013.83
2018-12-16T05:52:24.687Z,1013.77
2018-12-16T05:53:24.675Z,1013.80
2018-12-16T05:54:24.662Z,1013.74
2018-12-16T05:55:24.674Z,1013.80
2018-12-16T05:56:24.682Z,1013.73
2018-12-16T05:57:24.627Z,1013.72
2018-12-16T05:58:24.617Z,1013.75
2018-12-16T05:59:24.624Z,1013.67
2018-12-16T06:00:24.606Z,1013.73
2018-12-16T06:01:24.577Z,1013.73
2018-12-16T06:02:24.576Z,1013.75
2018-12-16T06:03:24.581Z,1013.74
2018-12-16T06:04:24.558Z,1013.68
2018-12-16T06:05:24.540Z,1013.68
2018-12-16T06:06:24.535Z,1013.67
2018-12-16T06:07:24.623Z,1013.58
2018-12-16T06:08:24.582Z,1013.63
2018-12-16T06:09:24.572Z,1013.64
2018-12-16T06:10:24.511Z,1013.64
2018-12-16T06:11:24.524Z,1013.60
2018-12-16T06:12:24.561Z,1013.61
2018-12-16T06:13:24.500Z,1013.63
2018-12-16T06:14:24.480Z,1013.59
2018-12-16T06:15:24.658Z,1013.59
2018-12-16T06:16:24.476Z,1013.57
2018-12-16T06:17:24.469Z,1013.55
2018-12-16T06:18:24.434Z,1013.49
2018-12-16T06:19:24.407Z,1013.46
2018-12-16T06:20:24.409Z,1013.45
2018-12-16T06:21:24.541Z,1013.41
2018-12-16T06:22:24.433Z,1013.42
2018-12-16T06:23:24.388Z,1013.46
2018-12-16T06:24:24.397Z,1013.44
2018-12-16T06:25:24.575Z,1013.43
2018-12-16T06:26:24.326Z,1013.40
2018-12-16T06:27:24.462Z,1013.42
2018-12-16T06:28:24.368Z,1013.42
2018-12-16T06:29:24.305Z,1013.44
2018-12-16T06:30:24.409Z,1013.42
2018-12-16T06:31:24.329Z,1013.38
2018-12-16T06:32:24.282Z,1013.39
2018-12-16T06:33:24.284Z,1013.46
2018-12-16T06:34:24.298Z,1013.41
2018-12-16T06:35:24.241Z,1013.43
2018-12-16T06:36:24.215Z,1013.35
2018-12-16T06:37:24.273Z,1013.34
2018-12-16T06:38:24.200Z,1013.31
2018-12-16T06:39:24.249Z,1013.31
2018-12-16T06:40:24.199Z,1013.39
2018-12-16T06:41:24.199Z,1013.34
2018-12-16T06:42:24.181Z,1013.35
2018-12-16T06:43:24.197Z,1013.34
2018-12-16T06:44:24.178Z,1013.34
2018-12-16T06:45:24.212Z,1013.26
2018-12-16T06:46:24.148Z,1013.24
2018-12-16T06:47:24.128Z,1013.18
2018-12-16T06:48:24.113Z,1013.23
2018-12-16T06:49:24.110Z,1013.19
2018-12-16T06:50:24.123Z,1013.05
2018-12-16T06:51:24.079Z,1013.07
2018-12-16T06:52:24.284Z,1013.08
2018-12-16T06:53:24.065Z,1013.00
2018-12-16T06:54:24.053Z,1013.04
2018-12-16T06:55:24.073Z,1013.00
2018-12-16T06:56:24.040Z,1012.99
2018-12-16T06:57:24.040Z,1012.97
2018-12-16T06:58:24.796Z,1012.98
2018-12-16T06:59:24.228Z,1012.96
2018-12-16T07:00:23.988Z,1012.86
2018-12-16T07:01:24.026Z,1012.96
2018-12-16T07:02:23.980Z,1012.96
2018-12-16T07:03:23.962Z,1012.90
2018-12-16T07:04:23.932Z,1012.95
2018-12-16T07:05:24.036Z,1012.90
2018-12-16T07:06:24.057Z,1012.88
2018-12-16T07:07:23.929Z,1012.88
2018-12-16T07:08:23.897Z,1012.88
2018-12-16T07:09:23.887Z,1012.91
2018-12-16T07:10:23.920Z,1012.90
2018-12-16T07:11:23.925Z,1012.96
2018-12-16T07:12:23.911Z,1013.01
2018-12-16T07:13:23.897Z,1013.01
2018-12-16T07:14:23.901Z,1013.03
2018-12-16T07:15:23.891Z,1013.11
2018-12-16T07:16:23.845Z,1013.15
2018-12-16T07:17:23.845Z,1013.19
2018-12-16T07:18:23.862Z,1013.24
2018-12-16T07:19:23.811Z,1013.27
2018-12-16T07:20:23.780Z,1013.34
2018-12-16T07:21:23.997Z,1013.29
2018-12-16T07:22:23.791Z,1013.30
2018-12-16T07:23:23.815Z,1013.30
2018-12-16T07:24:23.889Z,1013.32
2018-12-16T07:25:23.789Z,1013.30
2018-12-16T07:26:23.704Z,1013.33
2018-12-16T07:27:23.734Z,1013.25
2018-12-16T07:28:23.784Z,1013.33
2018-12-16T07:29:23.720Z,1013.28
2018-12-16T07:30:23.693Z,1013.28
2018-12-16T07:31:23.670Z,1013.25
2018-12-16T07:32:23.693Z,1013.31
2018-12-16T07:33:23.764Z,1013.32
2018-12-16T07:34:23.662Z,1013.29
2018-12-16T07:35:23.619Z,1013.29
2018-12-16T07:36:23.635Z,1013.21
2018-12-16T07:37:23.605Z,1013.25
2018-12-16T07:38:23.618Z,1013.35
2018-12-16T07:39:23.636Z,1013.30
2018-12-16T07:40:23.578Z,1013.29
2018-12-16T07:41:23.569Z,1013.28
2018-12-16T07:42:23.587Z,1013.33
2018-12-16T07:43:23.598Z,1013.36
2018-12-16T07:44:23.572Z,1013.25
2018-12-16T07:45:23.561Z,1013.32
2018-12-16T07:46:23.556Z,1013.26
2018-12-16T07:47:23.512Z,1013.27
2018-12-16T07:48:23.541Z,1013.26
2018-12-16T07:49:23.488Z,1013.26
2018-12-16T07:50:23.538Z,1013.25
2018-12-16T07:51:23.514Z,1013.22
2018-12-16T07:52:23.511Z,1013.25
2018-12-16T07:53:23.440Z,1013.26
2018-12-16T07:54:23.520Z,1013.19
2018-12-16T07:55:23.440Z,1013.20
2018-12-16T07:56:23.452Z,1013.18
2018-12-16T07:57:23.375Z,1013.20
2018-12-16T07:58:24.298Z,1013.20
2018-12-16T07:59:23.401Z,1013.14
2018-12-16T08:00:23.402Z,1013.09
2018-12-16T08:01:23.387Z,1013.08
2018-12-16T08:02:23.361Z,1013.11
2018-12-16T08:03:23.374Z,1013.09
2018-12-16T08:04:23.341Z,1013.09
2018-12-16T08:05:23.303Z,1013.07
2018-12-16T08:06:23.422Z,1013.08
2018-12-16T08:07:23.314Z,1012.99
2018-12-16T08:08:23.312Z,1013.04
2018-12-16T08:09:23.303Z,1012.99
2018-12-16T08:10:23.284Z,1013.04
2018-12-16T08:11:23.249Z,1013.04
2018-12-16T08:12:23.251Z,1013.02
2018-12-16T08:13:23.248Z,1013.03
2018-12-16T08:14:23.883Z,1013.03
2018-12-16T08:15:23.207Z,1013.00
2018-12-16T08:16:23.330Z,1012.94
2018-12-16T08:17:23.250Z,1012.97
2018-12-16T08:18:23.157Z,1012.97
2018-12-16T08:19:23.209Z,1012.90
2018-12-16T08:20:23.153Z,1012.96
2018-12-16T08:21:23.152Z,1012.95
2018-12-16T08:22:23.131Z,1012.86
2018-12-16T08:23:23.160Z,1012.89
2018-12-16T08:24:23.521Z,1012.90
2018-12-16T08:25:23.133Z,1012.91
2018-12-16T08:26:23.129Z,1012.89
2018-12-16T08:27:23.129Z,1012.91
2018-12-16T08:28:23.119Z,1012.90
2018-12-16T08:29:23.126Z,1012.94
2018-12-16T08:30:23.105Z,1012.89
2018-12-16T08:31:23.052Z,1012.90
2018-12-16T08:32:23.020Z,1012.93
2018-12-16T08:33:23.043Z,1012.91
2018-12-16T08:34:23.215Z,1012.86
2018-12-16T08:35:23.027Z,1012.92
2018-12-16T08:36:23.280Z,1012.95
2018-12-16T08:37:22.979Z,1012.86
2018-12-16T08:38:23.023Z,1012.90
2018-12-16T08:39:22.985Z,1012.93
2018-12-16T08:40:22.950Z,1012.94
2018-12-16T08:41:22.947Z,1012.97
2018-12-16T08:42:23.018Z,1012.92
2018-12-16T08:43:22.964Z,1012.94
2018-12-16T08:44:22.933Z,1012.93
2018-12-16T08:45:23.151Z,1012.93
2018-12-16T08:46:23.806Z,1012.97
2018-12-16T08:47:22.895Z,1012.88
2018-12-16T08:48:23.031Z,1012.96
2018-12-16T08:49:22.883Z,1012.91
2018-12-16T08:50:22.928Z,1012.89
2018-12-16T08:51:22.835Z,1012.93
2018-12-16T08:52:22.902Z,1012.94
2018-12-16T08:53:22.814Z,1012.90
2018-12-16T08:54:29.835Z,1012.97
2018-12-16T08:55:23.812Z,1012.92
2018-12-16T08:56:22.807Z,1012.91
2018-12-16T08:57:22.787Z,1012.87
2018-12-16T08:58:22.754Z,1012.87
2018-12-16T08:59:22.828Z,1012.84
2018-12-16T09:00:22.936Z,1012.79
2018-12-16T09:01:22.748Z,1012.84
2018-12-16T09:02:22.773Z,1012.79
2018-12-16T09:03:22.705Z,1012.77
2018-12-16T09:04:22.709Z,1012.86
2018-12-16T09:05:22.720Z,1012.85
2018-12-16T09:06:22.709Z,1012.80
2018-12-16T09:07:22.705Z,1012.83
2018-12-16T09:08:22.820Z,1012.77
2018-12-16T09:09:22.676Z,1012.81
2018-12-16T09:10:22.645Z,1012.82
2018-12-16T09:11:22.663Z,1012.82
2018-12-16T09:12:22.603Z,1012.73
2018-12-16T09:13:22.607Z,1012.71
2018-12-16T09:14:22.641Z,1012.72
2018-12-16T09:15:22.582Z,1012.69
2018-12-16T09:16:22.569Z,1012.64
2018-12-16T09:17:22.565Z,1012.66
2018-12-16T09:18:22.586Z,1012.64
2018-12-16T09:19:22.558Z,1012.60
2018-12-16T09:20:22.579Z,1012.62
2018-12-16T09:21:23.337Z,1012.59
2018-12-16T09:22:22.513Z,1012.63
2018-12-16T09:23:22.512Z,1012.55
2018-12-16T09:24:22.474Z,1012.61
2018-12-16T09:25:23.334Z,1012.54
2018-12-16T09:26:22.895Z,1012.59
2018-12-16T09:27:22.462Z,1012.58
2018-12-16T09:28:22.433Z,1012.58
2018-12-16T09:29:22.475Z,1012.60
2018-12-16T09:30:22.553Z,1012.62
2018-12-16T09:31:22.455Z,1012.62
2018-12-16T09:32:22.684Z,1012.54
2018-12-16T09:33:22.386Z,1012.56
2018-12-16T09:34:22.394Z,1012.55
2018-12-16T09:35:22.435Z,1012.52
2018-12-16T09:36:22.378Z,1012.55
2018-12-16T09:37:22.376Z,1012.42
2018-12-16T09:38:22.371Z,1012.46
2018-12-16T09:39:22.344Z,1012.42
2018-12-16T09:40:22.353Z,1012.41
2018-12-16T09:41:22.384Z,1012.42
2018-12-16T09:42:22.356Z,1012.41
2018-12-16T09:43:22.384Z,1012.31
2018-12-16T09:44:22.278Z,1012.27
2018-12-16T09:45:22.353Z,1012.22
2018-12-16T09:46:22.285Z,1012.25
2018-12-16T09:47:22.221Z,1012.24
2018-12-16T09:48:22.257Z,1012.19
2018-12-16T09:49:22.256Z,1012.16
2018-12-16T09:50:22.228Z,1012.11
2018-12-16T09:51:22.228Z,1012.11
2018-12-16T09:52:23.669Z,1012.10
2018-12-16T09:53:22.178Z,1012.07
2018-12-16T09:54:22.213Z,1012.07
2018-12-16T09:55:22.198Z,1012.09
2018-12-16T09:56:22.199Z,1012.10
2018-12-16T09:57:22.180Z,1012.06
2018-12-16T09:58:22.197Z,1012.05
2018-12-16T09:59:22.121Z,1012.02
2018-12-16T10:00:22.218Z,1012.03
2018-12-16T10:01:22.210Z,1012.00
2018-12-16T10:02:22.142Z,1011.93
2018-12-16T10:03:22.081Z,1011.97
2018-12-16T10:04:22.065Z,1011.97
2018-12-16T10:05:22.059Z,1011.96
2018-12-16T10:06:22.047Z,1011.92
2018-12-16T10:07:22.048Z,1011.93
2018-12-16T10:08:22.054Z,1011.88
2018-12-16T10:09:22.041Z,1011.91
2018-12-16T10:10:22.061Z,1011.93
2018-12-16T10:11:22.053Z,1011.90
2018-12-16T10:12:21.993Z,1011.95
2018-12-16T10:13:22.040Z,1011.94
2018-12-16T10:14:21.972Z,1011.94
2018-12-16T10:15:21.992Z,1011.93
2018-12-16T10:16:21.952Z,1011.85
2018-12-16T10:17:22.013Z,1011.93
2018-12-16T10:18:21.941Z,1011.88
2018-12-16T10:19:21.923Z,1011.93
2018-12-16T10:20:21.896Z,1011.95
2018-12-16T10:21:21.894Z,1011.92
2018-12-16T10:22:21.964Z,1011.88
2018-12-16T10:23:21.857Z,1011.92
2018-12-16T10:24:21.907Z,1011.91
2018-12-16T10:25:21.871Z,1011.90
2018-12-16T10:26:30.961Z,1011.92
2018-12-16T10:27:21.837Z,1011.86
2018-12-16T10:28:21.840Z,1011.87
2018-12-16T10:29:21.869Z,1011.77
2018-12-16T10:30:21.850Z,1011.79
2018-12-16T10:31:21.811Z,1011.78
2018-12-16T10:32:21.838Z,1011.80
2018-12-16T10:33:21.826Z,1011.78
2018-12-16T10:34:21.804Z,1011.67
2018-12-16T10:35:21.747Z,1011.70
2018-12-16T10:36:21.787Z,1011.64
2018-12-16T10:37:21.760Z,1011.73
2018-12-16T10:38:21.715Z,1011.69
2018-12-16T10:39:21.807Z,1011.65
2018-12-16T10:40:21.743Z,1011.65
2018-12-16T10:41:21.712Z,1011.65
2018-12-16T10:42:23.046Z,1011.64
2018-12-16T10:43:21.718Z,1011.64
2018-12-16T10:44:21.657Z,1011.62
2018-12-16T10:45:21.677Z,1011.64
2018-12-16T10:46:21.673Z,1011.61
2018-12-16T10:47:21.610Z,1011.59
2018-12-16T10:48:21.619Z,1011.55
2018-12-16T10:49:21.626Z,1011.53
2018-12-16T10:50:21.611Z,1011.53
2018-12-16T10:51:21.584Z,1011.50
2018-12-16T10:52:21.577Z,1011.47
2018-12-16T10:53:21.585Z,1011.45
2018-12-16T10:54:21.563Z,1011.42
2018-12-16T10:55:21.549Z,1011.47
2018-12-16T10:56:21.541Z,1011.45
2018-12-16T10:57:21.556Z,1011.38
2018-12-16T10:58:21.768Z,1011.35
2018-12-16T10:59:21.486Z,1011.36
2018-12-16T11:00:21.523Z,1011.34
2018-12-16T11:01:21.491Z,1011.32
2018-12-16T11:02:21.479Z,1011.29
2018-12-16T11:03:21.484Z,1011.30
2018-12-16T11:04:21.462Z,1011.31
2018-12-16T11:05:21.445Z,1011.25
2018-12-16T11:06:21.452Z,1011.22
2018-12-16T11:07:21.405Z,1011.26
2018-12-16T11:08:21.395Z,1011.12
2018-12-16T11:09:21.409Z,1011.18
2018-12-16T11:10:21.382Z,1011.12
2018-12-16T11:11:21.385Z,1011.18
2018-12-16T11:12:21.377Z,1011.09
2018-12-16T11:13:21.335Z,1011.07
2018-12-16T11:14:21.379Z,1011.13
2018-12-16T11:15:21.384Z,1011.16
2018-12-16T11:16:21.386Z,1011.13
2018-12-16T11:17:21.376Z,1011.17
2018-12-16T11:18:21.312Z,1011.15
2018-12-16T11:19:21.292Z,1011.15
2018-12-16T11:20:21.332Z,1011.17
2018-12-16T11:21:21.286Z,1011.18
2018-12-16T11:22:21.258Z,1011.11
2018-12-16T11:23:21.294Z,1011.14
2018-12-16T11:24:21.247Z,1011.13
2018-12-16T11:25:21.295Z,1011.07
2018-12-16T11:26:21.241Z,1011.08
2018-12-16T11:27:21.229Z,1011.14
2018-12-16T11:28:21.181Z,1011.05
2018-12-16T11:29:21.200Z,1011.11
2018-12-16T11:30:21.211Z,1011.03
2018-12-16T11:31:21.212Z,1010.99
2018-12-16T11:32:21.184Z,1011.00
2018-12-16T11:33:21.155Z,1011.04
2018-12-16T11:34:21.125Z,1011.04
2018-12-16T11:35:21.134Z,1011.00
2018-12-16T11:36:21.100Z,1011.02
2018-12-16T11:37:21.155Z,1010.95
2018-12-16T11:38:21.086Z,1011.03
2018-12-16T11:39:21.091Z,1010.96
2018-12-16T11:40:21.097Z,1010.88
2018-12-16T11:41:21.075Z,1010.91
2018-12-16T11:42:21.061Z,1010.93
2018-12-16T11:43:21.041Z,1010.88
2018-12-16T11:44:21.031Z,1010.91
2018-12-16T11:45:21.057Z,1010.91
2018-12-16T11:46:21.072Z,1010.87
2018-12-16T11:47:21.007Z,1010.84
2018-12-16T11:48:21.000Z,1010.88
2018-12-16T11:49:20.989Z,1010.83
2018-12-16T11:50:20.977Z,1010.82
2018-12-16T11:51:20.954Z,1010.83
2018-12-16T11:52:21.031Z,1010.89
2018-12-16T11:53:20.965Z,1010.78
2018-12-16T11:54:20.948Z,1010.79
2018-12-16T11:55:20.893Z,1010.74
2018-12-16T11:56:20.902Z,1010.70
2018-12-16T11:57:20.899Z,1010.70
2018-12-16T11:58:20.949Z,1010.68
2018-12-16T11:59:20.893Z,1010.59
2018-12-16T12:00:20.902Z,1010.55
2018-12-16T12:01:20.855Z,1010.56
2018-12-16T12:02:20.839Z,1010.57
2018-12-16T12:03:21.054Z,1010.57
2018-12-16T12:04:20.850Z,1010.56
2018-12-16T12:05:21.125Z,1010.58